sensor_id;sensor_type;location;lat;lon;timestamp;P1;durP1;ratioP1;P2;durP2;ratioP2
18433;SDS011;9344;52.294;13.626;2022-07-01T00:00:42;14.77;;;6.82;;
18433;SDS011;9344;52.294;13.626;2022-07-01T00:03:10;16.08;;;6.22;;
18433;SDS011;9344;52.294;13.626;2022-07-01T00:05:36;16.52;;;6.47;;
18433;SDS011;9344;52.294;13.626;2022-07-01T00:08:03;18.23;;;6.63;;
18433;SDS011;9344;52.294;13.626;2022-07-01T00:10:30;14.55;;;6.50;;
18433;SDS011;9344;52.294;13.626;2022-07-01T00:12:57;14.02;;;5.80;;
18433;SDS011;9344;52.294;13.626;2022-07-01T00:15:23;14.88;;;6.15;;
18433;SDS011;9344;52.294;13.626;2022-07-01T00:17:50;13.82;;;6.22;;
18433;SDS011;9344;52.294;13.626;2022-07-01T00:20:18;12.50;;;6.55;;
18433;SDS011;9344;52.294;13.626;2022-07-01T00:22:45;15.02;;;6.25;;
18433;SDS011;9344;52.294;13.626;2022-07-01T00:25:12;14.85;;;5.93;;
18433;SDS011;9344;52.294;13.626;2022-07-01T00:27:39;14.80;;;6.40;;
18433;SDS011;9344;52.294;13.626;2022-07-01T00:30:06;14.50;;;6.13;;
18433;SDS011;9344;52.294;13.626;2022-07-01T00:32:33;15.13;;;6.22;;
18433;SDS011;9344;52.294;13.626;2022-07-01T00:35:00;13.02;;;6.30;;
18433;SDS011;9344;52.294;13.626;2022-07-01T00:37:28;17.13;;;7.28;;
18433;SDS011;9344;52.294;13.626;2022-07-01T00:39:55;14.35;;;6.20;;
18433;SDS011;9344;52.294;13.626;2022-07-01T00:42:21;17.02;;;6.18;;
18433;SDS011;9344;52.294;13.626;2022-07-01T00:44:48;17.67;;;6.78;;
18433;SDS011;9344;52.294;13.626;2022-07-01T00:47:14;14.82;;;6.60;;
18433;SDS011;9344;52.294;13.626;2022-07-01T00:49:41;14.68;;;6.50;;
18433;SDS011;9344;52.294;13.626;2022-07-01T00:52:08;14.63;;;6.90;;
18433;SDS011;9344;52.294;13.626;2022-07-01T00:54:37;16.67;;;7.07;;
18433;SDS011;9344;52.294;13.626;2022-07-01T00:57:05;18.85;;;6.60;;
18433;SDS011;9344;52.294;13.626;2022-07-01T00:59:33;15.40;;;6.80;;
18433;SDS011;9344;52.294;13.626;2022-07-01T01:02:00;16.10;;;6.95;;
18433;SDS011;9344;52.294;13.626;2022-07-01T01:04:27;18.95;;;6.85;;
18433;SDS011;9344;52.294;13.626;2022-07-01T01:06:54;16.85;;;6.80;;
18433;SDS011;9344;52.294;13.626;2022-07-01T01:09:21;17.35;;;7.70;;
18433;SDS011;9344;52.294;13.626;2022-07-01T01:11:49;18.55;;;6.88;;
18433;SDS011;9344;52.294;13.626;2022-07-01T01:14:15;15.90;;;6.97;;
18433;SDS011;9344;52.294;13.626;2022-07-01T01:16:42;15.82;;;6.93;;
18433;SDS011;9344;52.294;13.626;2022-07-01T01:19:08;14.07;;;6.68;;
18433;SDS011;9344;52.294;13.626;2022-07-01T01:21:36;15.10;;;6.63;;
18433;SDS011;9344;52.294;13.626;2022-07-01T01:24:03;17.52;;;6.75;;
18433;SDS011;9344;52.294;13.626;2022-07-01T01:26:30;18.40;;;7.30;;
18433;SDS011;9344;52.294;13.626;2022-07-01T01:28:57;16.15;;;6.72;;
18433;SDS011;9344;52.294;13.626;2022-07-01T01:31:27;15.50;;;6.60;;
18433;SDS011;9344;52.294;13.626;2022-07-01T01:33:55;17.25;;;7.35;;
18433;SDS011;9344;52.294;13.626;2022-07-01T01:36:22;16.80;;;6.93;;
18433;SDS011;9344;52.294;13.626;2022-07-01T01:38:50;16.92;;;6.78;;
18433;SDS011;9344;52.294;13.626;2022-07-01T01:41:17;17.65;;;7.00;;
18433;SDS011;9344;52.294;13.626;2022-07-01T01:43:43;16.83;;;7.05;;
18433;SDS011;9344;52.294;13.626;2022-07-01T01:46:10;19.60;;;7.32;;
18433;SDS011;9344;52.294;13.626;2022-07-01T01:48:36;18.95;;;7.50;;
18433;SDS011;9344;52.294;13.626;2022-07-01T01:51:03;20.83;;;7.65;;
18433;SDS011;9344;52.294;13.626;2022-07-01T01:53:29;17.90;;;6.88;;
18433;SDS011;9344;52.294;13.626;2022-07-01T01:55:57;18.38;;;7.82;;
18433;SDS011;9344;52.294;13.626;2022-07-01T01:58:23;17.52;;;7.55;;
18433;SDS011;9344;52.294;13.626;2022-07-01T02:00:51;19.52;;;7.78;;
18433;SDS011;9344;52.294;13.626;2022-07-01T02:03:17;17.10;;;6.97;;
18433;SDS011;9344;52.294;13.626;2022-07-01T02:05:44;17.48;;;6.97;;
18433;SDS011;9344;52.294;13.626;2022-07-01T02:08:10;19.15;;;7.13;;
18433;SDS011;9344;52.294;13.626;2022-07-01T02:10:37;17.80;;;7.72;;
18433;SDS011;9344;52.294;13.626;2022-07-01T02:13:04;19.73;;;7.63;;
18433;SDS011;9344;52.294;13.626;2022-07-01T02:15:31;17.60;;;7.75;;
18433;SDS011;9344;52.294;13.626;2022-07-01T02:17:57;19.38;;;8.07;;
18433;SDS011;9344;52.294;13.626;2022-07-01T02:20:24;18.00;;;7.65;;
18433;SDS011;9344;52.294;13.626;2022-07-01T02:22:50;19.98;;;7.35;;
18433;SDS011;9344;52.294;13.626;2022-07-01T02:25:17;17.42;;;7.60;;
18433;SDS011;9344;52.294;13.626;2022-07-01T02:27:44;18.35;;;7.20;;
18433;SDS011;9344;52.294;13.626;2022-07-01T02:30:12;18.95;;;8.05;;
18433;SDS011;9344;52.294;13.626;2022-07-01T02:32:39;18.90;;;7.53;;
18433;SDS011;9344;52.294;13.626;2022-07-01T02:35:06;22.02;;;8.38;;
18433;SDS011;9344;52.294;13.626;2022-07-01T02:37:33;19.98;;;8.00;;
18433;SDS011;9344;52.294;13.626;2022-07-01T02:39:59;20.58;;;7.55;;
18433;SDS011;9344;52.294;13.626;2022-07-01T02:42:26;21.38;;;7.97;;
18433;SDS011;9344;52.294;13.626;2022-07-01T02:44:53;17.20;;;7.55;;
18433;SDS011;9344;52.294;13.626;2022-07-01T02:47:21;18.80;;;7.60;;
18433;SDS011;9344;52.294;13.626;2022-07-01T02:49:48;19.65;;;7.72;;
18433;SDS011;9344;52.294;13.626;2022-07-01T02:52:16;18.58;;;7.65;;
18433;SDS011;9344;52.294;13.626;2022-07-01T02:54:43;19.75;;;7.35;;
18433;SDS011;9344;52.294;13.626;2022-07-01T02:57:09;17.15;;;7.63;;
18433;SDS011;9344;52.294;13.626;2022-07-01T02:59:36;19.05;;;7.93;;
18433;SDS011;9344;52.294;13.626;2022-07-01T03:02:04;21.90;;;8.55;;
18433;SDS011;9344;52.294;13.626;2022-07-01T03:04:32;23.80;;;8.07;;
18433;SDS011;9344;52.294;13.626;2022-07-01T03:06:59;21.67;;;8.00;;
18433;SDS011;9344;52.294;13.626;2022-07-01T03:09:25;23.55;;;8.05;;
18433;SDS011;9344;52.294;13.626;2022-07-01T03:11:52;19.90;;;7.88;;
18433;SDS011;9344;52.294;13.626;2022-07-01T03:14:18;20.73;;;8.30;;
18433;SDS011;9344;52.294;13.626;2022-07-01T03:16:45;21.02;;;7.80;;
18433;SDS011;9344;52.294;13.626;2022-07-01T03:19:13;21.15;;;8.45;;
18433;SDS011;9344;52.294;13.626;2022-07-01T03:21:41;18.95;;;8.27;;
18433;SDS011;9344;52.294;13.626;2022-07-01T03:24:07;20.35;;;7.75;;
18433;SDS011;9344;52.294;13.626;2022-07-01T03:26:34;24.40;;;7.55;;
18433;SDS011;9344;52.294;13.626;2022-07-01T03:29:00;24.27;;;8.27;;
18433;SDS011;9344;52.294;13.626;2022-07-01T03:31:27;19.90;;;8.07;;
18433;SDS011;9344;52.294;13.626;2022-07-01T03:33:53;24.17;;;7.97;;
18433;SDS011;9344;52.294;13.626;2022-07-01T03:36:20;20.23;;;7.82;;
18433;SDS011;9344;52.294;13.626;2022-07-01T03:38:47;20.25;;;7.75;;
18433;SDS011;9344;52.294;13.626;2022-07-01T03:41:14;20.98;;;8.35;;
18433;SDS011;9344;52.294;13.626;2022-07-01T03:43:40;22.25;;;8.75;;
18433;SDS011;9344;52.294;13.626;2022-07-01T03:46:07;19.13;;;8.13;;
18433;SDS011;9344;52.294;13.626;2022-07-01T03:48:33;18.42;;;7.80;;
18433;SDS011;9344;52.294;13.626;2022-07-01T03:51:00;22.40;;;7.95;;
18433;SDS011;9344;52.294;13.626;2022-07-01T03:53:26;18.10;;;8.10;;
18433;SDS011;9344;52.294;13.626;2022-07-01T03:56:12;19.95;;;8.15;;
18433;SDS011;9344;52.294;13.626;2022-07-01T03:58:38;17.48;;;7.78;;
18433;SDS011;9344;52.294;13.626;2022-07-01T04:01:05;20.52;;;8.35;;
18433;SDS011;9344;52.294;13.626;2022-07-01T04:03:31;18.27;;;7.20;;
18433;SDS011;9344;52.294;13.626;2022-07-01T04:05:58;18.95;;;7.50;;
18433;SDS011;9344;52.294;13.626;2022-07-01T04:08:24;18.60;;;8.82;;
18433;SDS011;9344;52.294;13.626;2022-07-01T04:10:51;20.10;;;8.60;;
18433;SDS011;9344;52.294;13.626;2022-07-01T04:13:21;20.55;;;8.32;;
18433;SDS011;9344;52.294;13.626;2022-07-01T04:15:47;19.88;;;8.73;;
18433;SDS011;9344;52.294;13.626;2022-07-01T04:18:14;18.95;;;8.00;;
18433;SDS011;9344;52.294;13.626;2022-07-01T04:20:41;20.33;;;8.70;;
18433;SDS011;9344;52.294;13.626;2022-07-01T04:23:07;18.77;;;8.27;;
18433;SDS011;9344;52.294;13.626;2022-07-01T04:25:33;18.77;;;8.45;;
18433;SDS011;9344;52.294;13.626;2022-07-01T04:27:59;17.38;;;7.80;;
18433;SDS011;9344;52.294;13.626;2022-07-01T04:30:28;16.10;;;7.68;;
18433;SDS011;9344;52.294;13.626;2022-07-01T04:32:55;13.73;;;7.03;;
18433;SDS011;9344;52.294;13.626;2022-07-01T04:35:21;17.50;;;8.70;;
18433;SDS011;9344;52.294;13.626;2022-07-01T04:37:48;15.45;;;7.75;;
18433;SDS011;9344;52.294;13.626;2022-07-01T04:40:14;17.30;;;7.68;;
18433;SDS011;9344;52.294;13.626;2022-07-01T04:42:41;14.10;;;6.93;;
18433;SDS011;9344;52.294;13.626;2022-07-01T04:45:06;14.85;;;6.85;;
18433;SDS011;9344;52.294;13.626;2022-07-01T04:47:36;16.98;;;7.28;;
18433;SDS011;9344;52.294;13.626;2022-07-01T04:50:03;13.15;;;6.72;;
18433;SDS011;9344;52.294;13.626;2022-07-01T04:52:30;15.48;;;7.45;;
18433;SDS011;9344;52.294;13.626;2022-07-01T04:54:56;12.50;;;6.60;;
18433;SDS011;9344;52.294;13.626;2022-07-01T04:57:23;12.00;;;6.38;;
18433;SDS011;9344;52.294;13.626;2022-07-01T04:59:50;15.15;;;7.45;;
18433;SDS011;9344;52.294;13.626;2022-07-01T05:02:17;14.60;;;7.65;;
18433;SDS011;9344;52.294;13.626;2022-07-01T05:04:44;14.82;;;7.45;;
18433;SDS011;9344;52.294;13.626;2022-07-01T05:07:11;15.48;;;8.10;;
18433;SDS011;9344;52.294;13.626;2022-07-01T05:09:51;13.23;;;7.20;;
18433;SDS011;9344;52.294;13.626;2022-07-01T05:12:18;16.45;;;7.63;;
18433;SDS011;9344;52.294;13.626;2022-07-01T05:14:44;13.38;;;7.78;;
18433;SDS011;9344;52.294;13.626;2022-07-01T05:17:11;15.25;;;7.18;;
18433;SDS011;9344;52.294;13.626;2022-07-01T05:19:37;14.93;;;7.45;;
18433;SDS011;9344;52.294;13.626;2022-07-01T05:22:23;14.10;;;7.40;;
18433;SDS011;9344;52.294;13.626;2022-07-01T05:24:50;13.60;;;7.65;;
18433;SDS011;9344;52.294;13.626;2022-07-01T05:27:16;13.90;;;7.57;;
18433;SDS011;9344;52.294;13.626;2022-07-01T05:29:42;12.88;;;7.00;;
18433;SDS011;9344;52.294;13.626;2022-07-01T05:32:09;11.88;;;6.63;;
18433;SDS011;9344;52.294;13.626;2022-07-01T05:34:35;12.38;;;7.13;;
18433;SDS011;9344;52.294;13.626;2022-07-01T05:37:06;12.93;;;7.00;;
18433;SDS011;9344;52.294;13.626;2022-07-01T05:39:34;12.32;;;6.53;;
18433;SDS011;9344;52.294;13.626;2022-07-01T05:42:00;12.15;;;6.90;;
18433;SDS011;9344;52.294;13.626;2022-07-01T05:44:27;11.73;;;7.30;;
18433;SDS011;9344;52.294;13.626;2022-07-01T05:46:54;12.85;;;7.38;;
18433;SDS011;9344;52.294;13.626;2022-07-01T05:49:20;12.73;;;7.32;;
18433;SDS011;9344;52.294;13.626;2022-07-01T05:51:47;14.07;;;7.10;;
18433;SDS011;9344;52.294;13.626;2022-07-01T05:54:13;12.88;;;7.10;;
18433;SDS011;9344;52.294;13.626;2022-07-01T05:56:41;11.50;;;6.18;;
18433;SDS011;9344;52.294;13.626;2022-07-01T05:59:08;13.43;;;7.40;;
18433;SDS011;9344;52.294;13.626;2022-07-01T06:01:34;10.55;;;6.30;;
18433;SDS011;9344;52.294;13.626;2022-07-01T06:04:01;11.13;;;6.32;;
18433;SDS011;9344;52.294;13.626;2022-07-01T06:06:28;11.50;;;6.75;;
18433;SDS011;9344;52.294;13.626;2022-07-01T06:08:54;13.82;;;6.85;;
18433;SDS011;9344;52.294;13.626;2022-07-01T06:11:21;13.05;;;6.65;;
18433;SDS011;9344;52.294;13.626;2022-07-01T06:13:48;12.13;;;6.82;;
18433;SDS011;9344;52.294;13.626;2022-07-01T06:16:15;12.52;;;6.88;;
18433;SDS011;9344;52.294;13.626;2022-07-01T06:18:41;11.02;;;6.57;;
18433;SDS011;9344;52.294;13.626;2022-07-01T06:21:08;12.07;;;6.72;;
18433;SDS011;9344;52.294;13.626;2022-07-01T06:23:34;13.43;;;6.82;;
18433;SDS011;9344;52.294;13.626;2022-07-01T06:26:02;12.00;;;6.90;;
18433;SDS011;9344;52.294;13.626;2022-07-01T06:28:29;12.15;;;6.95;;
18433;SDS011;9344;52.294;13.626;2022-07-01T06:30:57;12.05;;;6.72;;
18433;SDS011;9344;52.294;13.626;2022-07-01T06:33:24;13.85;;;6.88;;
18433;SDS011;9344;52.294;13.626;2022-07-01T06:35:52;11.98;;;6.53;;
18433;SDS011;9344;52.294;13.626;2022-07-01T06:38:18;12.30;;;6.18;;
18433;SDS011;9344;52.294;13.626;2022-07-01T06:40:45;10.20;;;6.18;;
18433;SDS011;9344;52.294;13.626;2022-07-01T06:43:32;11.55;;;6.32;;
18433;SDS011;9344;52.294;13.626;2022-07-01T06:46:00;10.45;;;6.05;;
18433;SDS011;9344;52.294;13.626;2022-07-01T06:48:27;13.05;;;6.80;;
18433;SDS011;9344;52.294;13.626;2022-07-01T06:50:54;11.65;;;6.63;;
18433;SDS011;9344;52.294;13.626;2022-07-01T06:53:20;12.48;;;6.90;;
18433;SDS011;9344;52.294;13.626;2022-07-01T06:55:47;11.88;;;6.28;;
18433;SDS011;9344;52.294;13.626;2022-07-01T06:58:13;11.15;;;6.55;;
18433;SDS011;9344;52.294;13.626;2022-07-01T07:00:40;11.52;;;6.38;;
18433;SDS011;9344;52.294;13.626;2022-07-01T07:03:08;10.75;;;6.43;;
18433;SDS011;9344;52.294;13.626;2022-07-01T07:05:34;10.25;;;6.20;;
18433;SDS011;9344;52.294;13.626;2022-07-01T07:08:01;11.18;;;5.90;;
18433;SDS011;9344;52.294;13.626;2022-07-01T07:10:27;11.20;;;6.53;;
18433;SDS011;9344;52.294;13.626;2022-07-01T07:12:54;9.32;;;6.10;;
18433;SDS011;9344;52.294;13.626;2022-07-01T07:15:21;12.13;;;6.78;;
18433;SDS011;9344;52.294;13.626;2022-07-01T07:17:47;10.68;;;6.38;;
18433;SDS011;9344;52.294;13.626;2022-07-01T07:20:15;11.50;;;6.43;;
18433;SDS011;9344;52.294;13.626;2022-07-01T07:22:42;10.98;;;6.47;;
18433;SDS011;9344;52.294;13.626;2022-07-01T07:25:08;9.73;;;6.50;;
18433;SDS011;9344;52.294;13.626;2022-07-01T07:27:35;10.30;;;6.88;;
18433;SDS011;9344;52.294;13.626;2022-07-01T07:30:02;11.50;;;6.93;;
18433;SDS011;9344;52.294;13.626;2022-07-01T07:32:29;12.60;;;7.07;;
18433;SDS011;9344;52.294;13.626;2022-07-01T07:34:55;12.63;;;6.65;;
18433;SDS011;9344;52.294;13.626;2022-07-01T07:37:23;12.32;;;7.03;;
18433;SDS011;9344;52.294;13.626;2022-07-01T07:39:49;11.15;;;6.70;;
18433;SDS011;9344;52.294;13.626;2022-07-01T07:42:16;11.27;;;7.07;;
18433;SDS011;9344;52.294;13.626;2022-07-01T07:44:42;11.18;;;7.07;;
18433;SDS011;9344;52.294;13.626;2022-07-01T07:47:09;11.45;;;7.13;;
18433;SDS011;9344;52.294;13.626;2022-07-01T07:49:35;12.30;;;7.25;;
18433;SDS011;9344;52.294;13.626;2022-07-01T07:52:02;13.52;;;7.22;;
18433;SDS011;9344;52.294;13.626;2022-07-01T07:54:30;14.63;;;6.95;;
18433;SDS011;9344;52.294;13.626;2022-07-01T07:56:57;10.82;;;6.50;;
18433;SDS011;9344;52.294;13.626;2022-07-01T07:59:23;12.70;;;6.88;;
18433;SDS011;9344;52.294;13.626;2022-07-01T08:01:50;11.90;;;7.10;;
18433;SDS011;9344;52.294;13.626;2022-07-01T08:04:16;11.43;;;6.72;;
18433;SDS011;9344;52.294;13.626;2022-07-01T08:06:43;10.43;;;6.60;;
18433;SDS011;9344;52.294;13.626;2022-07-01T08:09:09;12.10;;;6.93;;
18433;SDS011;9344;52.294;13.626;2022-07-01T08:11:37;11.95;;;7.18;;
18433;SDS011;9344;52.294;13.626;2022-07-01T08:14:04;12.48;;;6.95;;
18433;SDS011;9344;52.294;13.626;2022-07-01T08:16:30;10.75;;;6.72;;
18433;SDS011;9344;52.294;13.626;2022-07-01T08:18:57;14.43;;;6.75;;
18433;SDS011;9344;52.294;13.626;2022-07-01T08:21:24;13.98;;;6.97;;
18433;SDS011;9344;52.294;13.626;2022-07-01T08:23:50;12.68;;;6.35;;
18433;SDS011;9344;52.294;13.626;2022-07-01T08:26:17;12.13;;;6.63;;
18433;SDS011;9344;52.294;13.626;2022-07-01T08:28:44;10.95;;;6.47;;
18433;SDS011;9344;52.294;13.626;2022-07-01T08:31:11;10.07;;;6.10;;
18433;SDS011;9344;52.294;13.626;2022-07-01T08:33:38;12.48;;;6.32;;
18433;SDS011;9344;52.294;13.626;2022-07-01T08:36:05;10.02;;;6.25;;
18433;SDS011;9344;52.294;13.626;2022-07-01T08:38:33;10.38;;;6.60;;
18433;SDS011;9344;52.294;13.626;2022-07-01T08:40:59;8.77;;;6.00;;
18433;SDS011;9344;52.294;13.626;2022-07-01T08:43:27;9.18;;;6.03;;
18433;SDS011;9344;52.294;13.626;2022-07-01T08:45:55;11.02;;;6.18;;
18433;SDS011;9344;52.294;13.626;2022-07-01T08:48:23;9.02;;;5.97;;
18433;SDS011;9344;52.294;13.626;2022-07-01T08:50:50;10.00;;;6.13;;
18433;SDS011;9344;52.294;13.626;2022-07-01T08:53:17;10.13;;;6.07;;
18433;SDS011;9344;52.294;13.626;2022-07-01T08:55:43;13.15;;;6.38;;
18433;SDS011;9344;52.294;13.626;2022-07-01T08:58:28;11.27;;;6.53;;
18433;SDS011;9344;52.294;13.626;2022-07-01T09:03:41;10.88;;;5.93;;
18433;SDS011;9344;52.294;13.626;2022-07-01T09:06:11;9.77;;;5.82;;
18433;SDS011;9344;52.294;13.626;2022-07-01T09:08:40;10.40;;;5.68;;
18433;SDS011;9344;52.294;13.626;2022-07-01T09:11:10;10.82;;;5.63;;
18433;SDS011;9344;52.294;13.626;2022-07-01T09:13:38;9.80;;;5.82;;
18433;SDS011;9344;52.294;13.626;2022-07-01T09:16:10;11.15;;;5.90;;
18433;SDS011;9344;52.294;13.626;2022-07-01T09:18:38;9.60;;;5.25;;
18433;SDS011;9344;52.294;13.626;2022-07-01T09:21:06;10.68;;;4.88;;
18433;SDS011;9344;52.294;13.626;2022-07-01T09:23:34;8.88;;;4.80;;
18433;SDS011;9344;52.294;13.626;2022-07-01T09:26:00;8.95;;;4.53;;
18433;SDS011;9344;52.294;13.626;2022-07-01T09:28:27;9.02;;;4.85;;
18433;SDS011;9344;52.294;13.626;2022-07-01T09:30:54;9.35;;;4.40;;
18433;SDS011;9344;52.294;13.626;2022-07-01T09:33:23;7.38;;;4.32;;
18433;SDS011;9344;52.294;13.626;2022-07-01T09:35:53;5.85;;;3.20;;
18433;SDS011;9344;52.294;13.626;2022-07-01T09:38:21;3.70;;;2.20;;
18433;SDS011;9344;52.294;13.626;2022-07-01T09:40:51;2.78;;;1.67;;
18433;SDS011;9344;52.294;13.626;2022-07-01T09:43:20;3.72;;;1.90;;
18433;SDS011;9344;52.294;13.626;2022-07-01T09:45:53;2.70;;;2.03;;
18433;SDS011;9344;52.294;13.626;2022-07-01T09:48:24;3.83;;;1.70;;
18433;SDS011;9344;52.294;13.626;2022-07-01T09:50:54;2.10;;;1.52;;
18433;SDS011;9344;52.294;13.626;2022-07-01T09:53:21;1.90;;;1.70;;
18433;SDS011;9344;52.294;13.626;2022-07-01T09:55:47;4.18;;;1.80;;
18433;SDS011;9344;52.294;13.626;2022-07-01T09:58:14;2.40;;;1.52;;
18433;SDS011;9344;52.294;13.626;2022-07-01T10:00:41;2.20;;;1.52;;
18433;SDS011;9344;52.294;13.626;2022-07-01T10:03:08;2.17;;;1.52;;
18433;SDS011;9344;52.294;13.626;2022-07-01T10:05:37;2.75;;;1.80;;
18433;SDS011;9344;52.294;13.626;2022-07-01T10:08:14;2.20;;;1.70;;
18433;SDS011;9344;52.294;13.626;2022-07-01T10:10:58;5.75;;;1.77;;
18433;SDS011;9344;52.294;13.626;2022-07-01T10:13:37;4.13;;;1.70;;
18433;SDS011;9344;52.294;13.626;2022-07-01T10:16:06;3.10;;;1.83;;
18433;SDS011;9344;52.294;13.626;2022-07-01T10:18:33;3.65;;;1.73;;
18433;SDS011;9344;52.294;13.626;2022-07-01T10:21:00;2.25;;;1.80;;
18433;SDS011;9344;52.294;13.626;2022-07-01T10:23:37;4.22;;;1.98;;
18433;SDS011;9344;52.294;13.626;2022-07-01T10:26:05;2.05;;;1.70;;
18433;SDS011;9344;52.294;13.626;2022-07-01T10:28:40;2.90;;;1.83;;
18433;SDS011;9344;52.294;13.626;2022-07-01T10:31:09;2.83;;;1.80;;
18433;SDS011;9344;52.294;13.626;2022-07-01T10:33:42;2.78;;;1.85;;
18433;SDS011;9344;52.294;13.626;2022-07-01T10:36:15;2.03;;;1.45;;
18433;SDS011;9344;52.294;13.626;2022-07-01T10:41:40;2.17;;;1.30;;
18433;SDS011;9344;52.294;13.626;2022-07-01T10:44:08;2.67;;;1.40;;
18433;SDS011;9344;52.294;13.626;2022-07-01T10:46:37;2.60;;;1.00;;
18433;SDS011;9344;52.294;13.626;2022-07-01T10:49:08;1.13;;;0.82;;
18433;SDS011;9344;52.294;13.626;2022-07-01T10:51:46;1.30;;;0.95;;
18433;SDS011;9344;52.294;13.626;2022-07-01T10:57:20;0.70;;;0.60;;
18433;SDS011;9344;52.294;13.626;2022-07-01T10:59:49;0.68;;;0.50;;
18433;SDS011;9344;52.294;13.626;2022-07-01T11:02:17;0.70;;;0.50;;
18433;SDS011;9344;52.294;13.626;2022-07-01T11:04:45;1.05;;;0.65;;
18433;SDS011;9344;52.294;13.626;2022-07-01T11:07:12;0.60;;;0.60;;
18433;SDS011;9344;52.294;13.626;2022-07-01T11:09:38;1.08;;;0.60;;
18433;SDS011;9344;52.294;13.626;2022-07-01T11:12:07;1.48;;;0.60;;
18433;SDS011;9344;52.294;13.626;2022-07-01T11:14:34;0.65;;;0.50;;
18433;SDS011;9344;52.294;13.626;2022-07-01T11:17:01;0.70;;;0.60;;
18433;SDS011;9344;52.294;13.626;2022-07-01T11:19:29;0.98;;;0.65;;
18433;SDS011;9344;52.294;13.626;2022-07-01T11:21:55;0.50;;;0.50;;
18433;SDS011;9344;52.294;13.626;2022-07-01T11:24:22;2.60;;;0.60;;
18433;SDS011;9344;52.294;13.626;2022-07-01T11:26:49;0.52;;;0.50;;
18433;SDS011;9344;52.294;13.626;2022-07-01T11:29:25;0.98;;;0.63;;
18433;SDS011;9344;52.294;13.626;2022-07-01T11:31:53;0.85;;;0.60;;
18433;SDS011;9344;52.294;13.626;2022-07-01T11:34:20;0.63;;;0.57;;
18433;SDS011;9344;52.294;13.626;2022-07-01T11:36:47;0.50;;;0.50;;
18433;SDS011;9344;52.294;13.626;2022-07-01T11:39:31;0.60;;;0.60;;
18433;SDS011;9344;52.294;13.626;2022-07-01T11:41:59;0.60;;;0.50;;
18433;SDS011;9344;52.294;13.626;2022-07-01T11:44:30;0.70;;;0.50;;
18433;SDS011;9344;52.294;13.626;2022-07-01T11:46:58;0.57;;;0.43;;
18433;SDS011;9344;52.294;13.626;2022-07-01T11:49:25;0.70;;;0.60;;
18433;SDS011;9344;52.294;13.626;2022-07-01T11:51:55;0.52;;;0.50;;
18433;SDS011;9344;52.294;13.626;2022-07-01T11:54:23;0.60;;;0.60;;
18433;SDS011;9344;52.294;13.626;2022-07-01T11:56:49;0.88;;;0.60;;
18433;SDS011;9344;52.294;13.626;2022-07-01T11:59:16;0.90;;;0.60;;
18433;SDS011;9344;52.294;13.626;2022-07-01T12:01:50;0.60;;;0.50;;
18433;SDS011;9344;52.294;13.626;2022-07-01T12:04:18;1.20;;;0.60;;
18433;SDS011;9344;52.294;13.626;2022-07-01T12:06:45;0.65;;;0.55;;
18433;SDS011;9344;52.294;13.626;2022-07-01T12:09:12;0.60;;;0.60;;
18433;SDS011;9344;52.294;13.626;2022-07-01T12:11:40;0.85;;;0.73;;
18433;SDS011;9344;52.294;13.626;2022-07-01T12:14:10;1.17;;;0.82;;
18433;SDS011;9344;52.294;13.626;2022-07-01T12:16:40;0.90;;;0.77;;
18433;SDS011;9344;52.294;13.626;2022-07-01T12:19:08;0.95;;;0.80;;
18433;SDS011;9344;52.294;13.626;2022-07-01T12:21:47;0.93;;;0.80;;
18433;SDS011;9344;52.294;13.626;2022-07-01T12:24:15;1.00;;;0.90;;
18433;SDS011;9344;52.294;13.626;2022-07-01T12:26:47;0.98;;;0.90;;
18433;SDS011;9344;52.294;13.626;2022-07-01T12:29:15;1.42;;;1.13;;
18433;SDS011;9344;52.294;13.626;2022-07-01T12:31:42;1.10;;;0.90;;
18433;SDS011;9344;52.294;13.626;2022-07-01T12:34:10;1.27;;;1.00;;
18433;SDS011;9344;52.294;13.626;2022-07-01T12:36:37;0.95;;;0.82;;
18433;SDS011;9344;52.294;13.626;2022-07-01T12:39:12;1.02;;;0.88;;
18433;SDS011;9344;52.294;13.626;2022-07-01T12:41:38;1.38;;;1.10;;
18433;SDS011;9344;52.294;13.626;2022-07-01T12:44:06;1.50;;;1.00;;
18433;SDS011;9344;52.294;13.626;2022-07-01T12:46:46;1.25;;;0.90;;
18433;SDS011;9344;52.294;13.626;2022-07-01T12:49:18;1.10;;;1.00;;
18433;SDS011;9344;52.294;13.626;2022-07-01T12:51:46;1.50;;;1.08;;
18433;SDS011;9344;52.294;13.626;2022-07-01T12:54:27;1.15;;;0.90;;
18433;SDS011;9344;52.294;13.626;2022-07-01T12:56:55;1.10;;;0.80;;
18433;SDS011;9344;52.294;13.626;2022-07-01T12:59:22;1.10;;;0.90;;
18433;SDS011;9344;52.294;13.626;2022-07-01T13:01:48;1.77;;;1.10;;
18433;SDS011;9344;52.294;13.626;2022-07-01T13:04:24;1.48;;;1.10;;
18433;SDS011;9344;52.294;13.626;2022-07-01T13:06:50;2.00;;;1.40;;
18433;SDS011;9344;52.294;13.626;2022-07-01T13:09:17;1.63;;;1.20;;
18433;SDS011;9344;52.294;13.626;2022-07-01T13:11:44;1.20;;;1.10;;
18433;SDS011;9344;52.294;13.626;2022-07-01T13:14:10;1.75;;;1.20;;
18433;SDS011;9344;52.294;13.626;2022-07-01T13:16:37;1.42;;;1.10;;
18433;SDS011;9344;52.294;13.626;2022-07-01T13:19:04;1.95;;;1.20;;
18433;SDS011;9344;52.294;13.626;2022-07-01T13:21:32;1.65;;;1.20;;
18433;SDS011;9344;52.294;13.626;2022-07-01T13:23:58;1.38;;;1.08;;
18433;SDS011;9344;52.294;13.626;2022-07-01T13:26:25;4.00;;;1.30;;
18433;SDS011;9344;52.294;13.626;2022-07-01T13:28:51;1.33;;;1.13;;
18433;SDS011;9344;52.294;13.626;2022-07-01T13:31:18;2.17;;;1.50;;
18433;SDS011;9344;52.294;13.626;2022-07-01T13:33:44;2.75;;;1.20;;
18433;SDS011;9344;52.294;13.626;2022-07-01T13:36:11;2.00;;;1.10;;
18433;SDS011;9344;52.294;13.626;2022-07-01T13:38:40;2.33;;;1.33;;
18433;SDS011;9344;52.294;13.626;2022-07-01T13:41:08;1.27;;;1.10;;
18433;SDS011;9344;52.294;13.626;2022-07-01T13:43:34;3.10;;;1.10;;
18433;SDS011;9344;52.294;13.626;2022-07-01T13:46:01;1.30;;;1.20;;
18433;SDS011;9344;52.294;13.626;2022-07-01T13:48:28;1.55;;;1.27;;
18433;SDS011;9344;52.294;13.626;2022-07-01T13:50:54;1.60;;;1.25;;
18433;SDS011;9344;52.294;13.626;2022-07-01T13:53:21;1.55;;;1.20;;
18433;SDS011;9344;52.294;13.626;2022-07-01T13:55:49;1.30;;;1.10;;
18433;SDS011;9344;52.294;13.626;2022-07-01T13:58:15;1.45;;;1.17;;
18433;SDS011;9344;52.294;13.626;2022-07-01T14:00:42;1.77;;;1.13;;
18433;SDS011;9344;52.294;13.626;2022-07-01T14:03:09;1.77;;;1.42;;
18433;SDS011;9344;52.294;13.626;2022-07-01T14:05:36;1.30;;;1.00;;
18433;SDS011;9344;52.294;13.626;2022-07-01T14:08:03;1.35;;;1.02;;
18433;SDS011;9344;52.294;13.626;2022-07-01T14:10:30;1.85;;;1.10;;
18433;SDS011;9344;52.294;13.626;2022-07-01T14:12:59;1.73;;;1.40;;
18433;SDS011;9344;52.294;13.626;2022-07-01T14:15:26;1.67;;;1.05;;
18433;SDS011;9344;52.294;13.626;2022-07-01T14:17:52;1.52;;;1.10;;
18433;SDS011;9344;52.294;13.626;2022-07-01T14:20:19;1.35;;;1.13;;
18433;SDS011;9344;52.294;13.626;2022-07-01T14:22:45;3.08;;;1.27;;
18433;SDS011;9344;52.294;13.626;2022-07-01T14:25:12;1.63;;;1.08;;
18433;SDS011;9344;52.294;13.626;2022-07-01T14:27:38;2.03;;;1.08;;
18433;SDS011;9344;52.294;13.626;2022-07-01T14:30:07;1.80;;;1.10;;
18433;SDS011;9344;52.294;13.626;2022-07-01T14:32:35;1.38;;;1.20;;
18433;SDS011;9344;52.294;13.626;2022-07-01T14:35:02;1.45;;;1.10;;
18433;SDS011;9344;52.294;13.626;2022-07-01T14:37:28;1.92;;;1.20;;
18433;SDS011;9344;52.294;13.626;2022-07-01T14:39:55;1.33;;;1.08;;
18433;SDS011;9344;52.294;13.626;2022-07-01T14:42:22;1.33;;;1.10;;
18433;SDS011;9344;52.294;13.626;2022-07-01T14:44:48;1.33;;;1.05;;
18433;SDS011;9344;52.294;13.626;2022-07-01T14:47:16;1.70;;;1.13;;
18433;SDS011;9344;52.294;13.626;2022-07-01T14:49:43;1.48;;;1.10;;
18433;SDS011;9344;52.294;13.626;2022-07-01T14:52:09;1.77;;;1.10;;